Latest Weather Observations for Broken Hill Airport

IDN60801

Issued at 2:04 pm EST Friday 29 May 2015 (issued every 30 minutes, with the page automatically refreshed every 10 minutes)

About weather observations | Map of weather stations | Latest weather observations for NSW | Other Formats
Station Details ID: 047048 Name: BROKEN HILL AIRPORT AWS Lat: -32.00 Lon: 141.47 Height: 281.3 m
Data from the previous 72 hours. | See also: Recent months for locations in New South Wales
Date/Time
EST
Temp
°C
App
Temp
°C
Dew
Point
Rel
Hum
%
Delta-T
°C
Wind Press
QNH
hPa
Press
MSL
hPa
Rain
since 9 am
mm
Dir
 
Spd
km/h
Gust
km/h
Spd
kts
Gust
kts
29/02:00pm 13.7 10.9 10.1 79 1.9 ESE 15 20 8 11 1023.8 1023.6 0.0
29/01:30pm 13.5 11.2 10.5 82 1.6 ESE 13 15 7 8 1023.9 1023.7 0.0
29/01:00pm 13.2 10.9 10.4 83 1.5 ESE 13 17 7 9 1024.1 1024.0 0.0
29/12:30pm 13.6 10.7 9.8 78 2.0 ESE 15 17 8 9 1024.8 1024.7 0.0
29/12:00pm 13.4 11.4 10.0 80 1.8 SE 11 17 6 9 1025.0 1024.9 0.0
29/11:30am 13.1 10.6 9.7 80 1.8 SE 13 17 7 9 1025.4 1025.3 0.0
29/11:00am 13.0 11.0 10.0 82 1.6 SE 11 15 6 8 1025.4 1025.3 0.0
29/10:30am 12.5 9.9 9.5 82 1.5 S 13 15 7 8 1025.8 1025.7 0.0
29/10:00am 12.5 9.9 9.5 82 1.5 SSE 13 17 7 9 1025.4 1025.3 0.0
29/09:30am 12.6 10.1 9.8 83 1.4 SSE 13 15 7 8 1025.1 1025.0 0.4
29/09:00am 12.6 9.7 9.8 83 1.4 SSW 15 19 8 10 1025.1 1025.0 0.4
29/08:30am 12.4 10.8 10.1 86 1.2 S 9 11 5 6 1024.7 1024.6 0.4
29/08:00am 12.2 11.2 10.4 89 0.9 S 6 7 3 4 1024.3 1024.2 0.4
29/07:30am 12.1 11.1 10.2 88 1.0 SSE 6 7 3 4 1023.7 1023.5 0.4
29/07:00am 12.3 11.1 10.4 88 1.0 S 7 11 4 6 1023.8 1023.6 0.4
29/06:30am 12.4 10.1 10.5 88 1.0 SSW 13 17 7 9 1023.8 1023.6 0.4
29/06:00am 12.6 11.0 11.5 93 0.6 SW 11 15 6 8 1023.4 1023.2 0.4
29/05:57am 12.7 11.2 11.8 94 0.5 SW 11 15 6 8 1023.3 1023.1 0.4
29/05:30am 12.7 11.9 11.6 93 0.6 WSW 7 9 4 5 1023.0 1022.8 0.4
29/05:29am 12.7 11.9 11.6 93 0.6 WSW 7 9 4 5 1023.1 1022.9 0.4
29/05:00am 13.3 13.7 12.4 94 0.5 SSW 2 9 1 5 1022.7 1022.6 0.4
29/04:51am 13.3 13.3 12.4 94 0.5 W 4 7 2 4 1022.7 1022.6 0.4
29/04:30am 13.4 12.9 12.5 94 0.5 SW 7 9 4 5 1022.5 1022.4 0.4
29/04:00am 13.6 12.7 12.7 94 0.5 W 9 13 5 7 1022.6 1022.5 0.4
29/03:30am 13.8 12.6 12.9 94 0.5 W 11 17 6 9 1022.5 1022.4 0.4
29/03:00am 13.9 11.6 13.0 94 0.5 W 17 20 9 11 1022.6 1022.5 0.4
29/02:30am 13.9 11.6 13.0 94 0.5 WNW 17 20 9 11 1022.2 1022.1 0.4
29/02:00am 13.9 11.2 13.0 94 0.5 WNW 19 22 10 12 1022.3 1022.2 0.4
29/01:30am 13.9 11.0 13.0 94 0.5 WNW 20 26 11 14 1022.0 1021.9 0.4
29/01:00am 13.9 11.2 13.0 94 0.5 WNW 19 28 10 15 1022.3 1022.2 0.4
29/12:30am 13.9 11.6 13.0 94 0.5 WNW 17 24 9 13 1022.4 1022.3 0.4
29/12:14am 13.9 11.5 12.8 93 0.6 W 17 24 9 13 1022.5 1022.4 0.4
29/12:00am 13.8 11.8 12.7 93 0.6 WNW 15 19 8 10 1022.3 1022.2 0.4
 
Date/Time
EST
Temp
°C
App
Temp
°C
Dew
Point
Rel
Hum
%
Delta-T
°C
Wind Press
QNH
hPa
Press
MSL
hPa
Rain
since 9 am
mm
Dir
 
Spd
km/h
Gust
km/h
Spd
kts
Gust
kts
28/11:30pm 14.0 11.0 12.7 92 0.7 WNW 20 26 11 14 1022.5 1022.4 0.4
28/11:00pm 14.0 11.2 12.6 91 0.8 WNW 19 24 10 13 1022.3 1022.2 0.4
28/10:30pm 14.1 11.7 12.5 90 0.9 NW 17 22 9 12 1022.0 1021.9 0.4
28/10:00pm 14.3 11.5 12.7 90 0.9 NW 19 24 10 13 1022.1 1022.0 0.4
28/09:30pm 14.2 11.8 12.6 90 0.9 NW 17 24 9 13 1021.9 1021.8 0.4
28/09:00pm 14.3 12.0 12.9 91 0.8 NNW 17 22 9 12 1021.6 1021.5 0.2
28/08:30pm 14.3 12.4 12.9 91 0.8 NW 15 20 8 11 1021.9 1021.8 0.2
28/08:00pm 14.5 12.9 12.9 90 0.9 NW 13 17 7 9 1021.7 1021.6 0.2
28/07:30pm 14.4 12.0 12.8 90 0.9 NW 17 22 9 12 1021.2 1021.1 0.2
28/07:00pm 14.5 12.2 12.9 90 0.9 NW 17 22 9 12 1021.1 1021.0 0.2
28/06:30pm 14.7 12.4 12.9 89 1.0 NW 17 24 9 13 1020.8 1020.6 0.2
28/06:00pm 14.9 12.6 13.1 89 1.0 NW 17 26 9 14 1020.5 1020.3 0.2
28/05:30pm 15.0 12.8 13.2 89 1.0 NW 17 24 9 13 1020.4 1020.2 0.2
28/05:00pm 15.0 12.8 13.2 89 1.0 NW 17 20 9 11 1020.2 1020.0 0.2
28/04:30pm 15.1 12.9 13.3 89 1.0 W 17 26 9 14 1020.5 1020.3 0.2
28/04:00pm 15.5 13.7 13.3 87 1.2 WNW 15 17 8 9 1019.9 1019.7 0.0
28/03:30pm 15.8 13.7 13.6 87 1.2 NW 17 24 9 13 1019.6 1019.4 0.0
28/03:00pm 16.2 13.4 13.1 82 1.7 WNW 20 28 11 15 1019.9 1019.7 0.0
28/02:30pm 17.1 14.1 12.4 74 2.6 NW 20 28 11 15 1020.0 1019.8 0.0
28/02:00pm 18.2 15.1 12.2 68 3.4 NW 20 28 11 15 1020.1 1019.9 0.0
28/01:30pm 18.7 15.5 11.8 64 3.9 NW 20 28 11 15 1020.2 1020.0 0.0
28/01:00pm 19.3 16.3 11.8 62 4.2 WNW 19 24 10 13 1020.2 1020.0 0.0
28/12:30pm 19.5 17.2 11.8 61 4.3 NW 15 20 8 11 1020.4 1020.2 0.0
28/12:00pm 19.5 16.7 11.3 59 4.5 NW 17 22 9 12 1020.7 1020.5 0.0
28/11:30am 20.1 17.9 12.1 60 4.5 WNW 15 20 8 11 1021.0 1020.9 0.0
28/11:00am 19.4 17.2 10.9 58 4.7 NNW 13 19 7 10 1021.0 1020.9 0.0
28/10:30am 19.2 17.8 12.2 64 3.9 NNW 11 15 6 8 1021.3 1021.2 0.0
28/10:00am 18.4 17.1 12.4 68 3.4 NW 11 13 6 7 1021.6 1021.5 0.0
28/09:30am 16.4 17.3 12.9 80 2.0 CALM 0 0 0 0 1021.4 1021.3 1.6
28/09:00am 15.1 14.6 12.6 85 1.4 N 7 9 4 5 1021.6 1021.5 1.6
28/08:30am 13.6 14.2 12.0 90 0.9 CALM 0 0 0 0 1021.0 1020.9 1.6
28/08:00am 14.0 14.7 12.2 89 1.0 CALM 0 0 0 0 1021.0 1020.9 1.6
28/07:30am 14.4 14.0 12.4 88 1.1 N 6 7 3 4 1021.2 1021.1 1.6
28/07:00am 14.6 14.0 12.3 86 1.3 NNW 7 11 4 6 1021.0 1020.9 0.8
28/06:30am 14.7 14.1 12.2 85 1.4 N 7 9 4 5 1020.5 1020.3 0.2
28/06:00am 14.8 14.3 12.5 86 1.3 N 7 11 4 6 1020.0 1019.8 0.2
28/05:30am 13.9 14.6 12.3 90 0.9 CALM 0 0 0 0 1020.0 1019.8 0.2
28/05:00am 13.5 13.0 11.9 90 0.9 NE 6 9 3 5 1019.7 1019.5 0.0
28/04:30am 13.8 14.4 11.8 88 1.1 CALM 0 0 0 0 1019.9 1019.7 0.0
28/04:00am 14.7 14.6 12.2 85 1.4 NNE 4 7 2 4 1019.8 1019.6 0.0
28/03:30am 14.2 13.6 12.4 89 1.0 N 7 9 4 5 1019.7 1019.5 0.0
28/03:00am 13.2 12.1 11.9 92 0.7 NE 9 11 5 6 1020.1 1019.9 0.0
28/02:30am 12.7 11.0 11.1 90 0.9 ENE 11 13 6 7 1020.2 1020.0 0.0
28/02:00am 14.1 13.1 10.9 81 1.7 N 7 11 4 6 1020.5 1020.3 0.0
28/01:30am 15.5 14.9 12.3 81 1.8 N 7 9 4 5 1020.6 1020.4 0.0
28/01:00am 15.4 14.5 12.5 83 1.6 N 9 11 5 6 1020.7 1020.5 0.0
28/12:30am 15.2 14.0 12.7 85 1.4 N 11 13 6 7 1020.9 1020.7 0.0
28/12:00am 12.1 11.0 10.7 91 0.7 N 7 9 4 5 1021.2 1021.1 0.0
 
Date/Time
EST
Temp
°C
App
Temp
°C
Dew
Point
Rel
Hum
%
Delta-T
°C
Wind Press
QNH
hPa
Press
MSL
hPa
Rain
since 9 am
mm
Dir
 
Spd
km/h
Gust
km/h
Spd
kts
Gust
kts
27/11:30pm 12.0 10.8 10.4 90 0.8 NE 7 9 4 5 1021.0 1020.9 0.0
27/11:00pm 13.6 12.9 12.0 90 0.9 NNE 7 11 4 6 1021.2 1021.1 0.0
27/10:30pm 13.2 11.7 11.8 91 0.8 NE 11 11 6 6 1021.0 1020.9 0.0
27/10:00pm 12.6 10.8 10.7 88 1.0 ENE 11 13 6 7 1021.0 1020.9 0.0
27/09:30pm 13.3 12.0 11.2 87 1.1 NNE 9 11 5 6 1021.4 1021.3 0.0
27/09:00pm 13.9 12.7 11.6 86 1.2 NE 9 13 5 7 1021.4 1021.3 0.0
27/08:30pm 14.3 13.6 12.0 86 1.3 NNE 7 11 4 6 1021.3 1021.2 0.0
27/08:00pm 14.3 13.4 11.5 83 1.5 NE 7 9 4 5 1021.4 1021.3 0.0
27/07:30pm 14.7 13.6 10.7 77 2.1 N 7 9 4 5 1021.1 1021.0 0.0
27/07:00pm 16.6 15.8 11.7 73 2.7 NNW 7 9 4 5 1020.7 1020.5 0.0
27/06:30pm 17.2 16.7 11.9 71 2.9 N 6 7 3 4 1020.8 1020.6 0.0
27/06:00pm 18.2 17.5 12.0 67 3.5 NNW 7 9 4 5 1020.6 1020.4 0.0
27/05:30pm 18.6 17.9 12.1 66 3.6 NW 7 11 4 6 1020.5 1020.3 0.0
27/05:00pm 19.2 18.2 12.2 64 3.9 NW 9 13 5 7 1020.5 1020.3 0.0
27/04:30pm 19.5 17.2 11.8 61 4.3 WNW 15 17 8 9 1020.4 1020.2 0.0
27/04:00pm 19.8 17.8 12.6 63 4.1 WNW 15 20 8 11 1020.2 1020.0 0.0
27/03:30pm 19.9 17.8 12.4 62 4.2 WNW 15 24 8 13 1020.5 1020.3 0.0
27/03:00pm 20.1 17.4 11.8 59 4.7 WNW 17 20 9 11 1020.4 1020.2 0.0
27/02:30pm 20.2 17.5 11.7 58 4.8 WNW 17 24 9 13 1020.7 1020.5 0.0
27/02:00pm 20.8 17.9 12.2 58 4.9 WNW 19 26 10 14 1020.8 1020.6 0.0
27/01:30pm 20.9 18.6 11.8 56 5.1 NW 15 22 8 12 1020.9 1020.7 0.0
27/01:00pm 21.2 18.6 12.1 56 5.2 NW 17 22 9 12 1021.3 1021.2 0.0
27/12:30pm 20.2 18.0 12.2 60 4.5 NW 15 26 8 14 1022.0 1021.9 0.0
27/12:00pm 20.0 17.9 12.5 62 4.3 NNW 15 22 8 12 1022.4 1022.3 0.0
27/11:30am 19.2 16.9 12.9 67 3.6 N 17 26 9 14 1022.8 1022.7 0.0
27/11:00am 18.3 15.9 12.5 69 3.3 N 17 20 9 11 1023.2 1023.0 0.0
27/10:30am 17.5 15.9 12.8 74 2.7 N 13 17 7 9 1023.5 1023.3 0.0
27/10:00am 16.3 15.0 12.5 78 2.1 N 11 13 6 7 1023.6 1023.4 0.0
27/09:30am 16.0 14.7 12.4 79 2.0 N 11 15 6 8 1023.6 1023.4 1.2
27/09:00am 15.3 14.0 12.4 83 1.6 N 11 15 6 8 1023.5 1023.3 1.2
27/08:30am 14.2 12.8 12.1 87 1.2 NNE 11 20 6 11 1023.2 1023.0 1.2
27/08:00am 14.0 12.4 11.7 86 1.2 N 11 15 6 8 1023.1 1022.9 1.2
27/07:30am 13.9 11.6 11.6 86 1.2 NNW 15 19 8 10 1023.0 1022.8 1.2
27/07:00am 13.8 11.1 11.8 88 1.1 NNW 17 20 9 11 1023.1 1022.9 1.0
27/06:30am 14.2 10.2 11.9 86 1.3 NW 24 35 13 19 1023.0 1022.8 0.2
27/06:00am 14.9 11.6 11.7 81 1.7 NW 20 30 11 16 1022.5 1022.4 0.0
27/05:30am 15.1 11.9 11.1 77 2.2 NW 19 26 10 14 1022.2 1022.1 0.0
27/05:00am 15.4 13.0 11.4 77 2.2 NNW 15 22 8 12 1022.2 1022.1 0.0
27/04:30am 15.3 14.0 11.1 76 2.3 NNW 9 13 5 7 1022.1 1022.0 0.0
27/04:00am 15.0 14.3 10.2 73 2.5 NNW 4 7 2 4 1022.1 1022.0 0.0
27/03:30am 15.0 13.4 10.2 73 2.5 N 9 11 5 6 1022.2 1022.1 0.0
27/03:00am 15.0 13.8 10.2 73 2.5 NNE 7 9 4 5 1022.3 1022.2 0.0
27/02:30am 15.2 13.5 10.0 71 2.8 N 9 13 5 7 1022.3 1022.2 0.0
27/02:00am 15.0 13.4 10.2 73 2.5 N 9 11 5 6 1022.7 1022.6 0.0
27/01:30am 14.8 13.6 10.4 75 2.3 NNE 7 11 4 6 1022.8 1022.7 0.0
27/01:00am 15.0 13.0 10.2 73 2.5 NNE 11 13 6 7 1023.0 1022.8 0.0
27/12:30am 15.0 13.3 10.0 72 2.6 NNE 9 11 5 6 1023.1 1022.9 0.0
27/12:00am 15.7 13.6 9.8 68 3.1 NNE 11 15 6 8 1023.3 1023.1 0.0
 
Date/Time
EST
Temp
°C
App
Temp
°C
Dew
Point
Rel
Hum
%
Delta-T
°C
Wind Press
QNH
hPa
Press
MSL
hPa
Rain
since 9 am
mm
Dir
 
Spd
km/h
Gust
km/h
Spd
kts
Gust
kts
26/11:30pm 14.8 14.9 10.0 73 2.5 CALM 0 0 0 0 1023.4 1023.2 0.0
26/11:00pm 15.1 14.9 9.0 67 3.1 CALM 0 0 0 0 1023.6 1023.4 0.0
26/10:30pm 15.2 15.1 9.3 68 3.1 CALM 0 0 0 0 1023.7 1023.5 0.0
26/10:00pm 15.6 15.3 8.6 63 3.6 CALM 0 0 0 0 1023.8 1023.6 0.0
26/09:30pm 15.9 15.5 8.4 61 3.8 CALM 0 0 0 0 1024.0 1023.9 0.0
26/09:00pm 16.1 14.4 8.3 60 4.0 SSW 7 9 4 5 1023.7 1023.5 0.0
26/08:30pm 17.5 15.7 8.1 54 4.9 N 7 9 4 5 1023.7 1023.5 0.0
26/08:00pm 16.7 16.5 9.1 61 4.0 CALM 0 0 0 0 1023.6 1023.4 0.0
26/07:30pm 17.1 16.8 8.8 58 4.3 CALM 0 0 0 0 1023.7 1023.5 0.0
26/07:00pm 17.9 16.3 8.2 53 5.0 NW 6 7 3 4 1023.6 1023.4 0.0
26/06:30pm 18.1 17.8 8.7 54 4.9 CALM 0 0 0 0 1023.5 1023.3 0.0
26/06:00pm 18.1 16.8 9.2 56 4.7 ENE 6 6 3 3 1023.2 1023.0 0.0
26/05:30pm 18.5 17.0 9.3 55 4.9 ENE 7 9 4 5 1023.2 1023.0 0.0
26/05:00pm 19.4 17.8 8.7 50 5.6 NE 7 9 4 5 1023.1 1022.9 0.0
26/04:30pm 19.7 18.3 8.7 49 5.8 NNE 6 9 3 5 1022.7 1022.6 0.0
26/04:00pm 19.7 17.6 8.1 47 6.1 N 9 15 5 8 1022.8 1022.7 0.0
26/03:30pm 19.8 17.3 8.2 47 6.1 NNE 11 15 6 8 1022.7 1022.6 0.0
26/03:00pm 19.9 17.7 7.9 46 6.2 NE 9 15 5 8 1023.1 1022.9 0.0

Other Formats:

Comma delimited format used in spreadsheet applications
http://www.bom.gov.au/fwo/IDN60801/IDN60801.94691.axf

JavaScript Object Notation format (JSON) in row-major order
http://www.bom.gov.au/fwo/IDN60801/IDN60801.94691.json